Pagina principală
METAR-TAF:

METAR-TAF

Aeroporturi :

Princeton, Columbia Britanică, Canada

Latitudine: 49-28N, longitudine: 120-31W, elevație: 700 m

Observații meteo curente

Raportul a fost făcut în urmă cu 16 de minute, la 22:00 UTC
Vânt 3 kt de la Sud/Sud-est
Temperatură 9°C
Umiditate 76%
Presiune 1015 hPa
Vizibilitate: 24.1 km
Nori împrăștiați la o înălțime de 3000 picior
Total acoperit la o înălțime de 4500 picior
ploaie slabă

METAR: CYDC 162200Z 15003KT 15SM -RA SCT030 OVC045 09/05 A2997 RMK SC3SC5 SLP158

Ora: 15:16 (22:16 UTC)


TAF: lipsă

Observații și prognoze meteo pentru peste 4.000 de aeroporturi (rapoarte METAR și TAF).

Stațiile disponibile sunt reprezentate pe hartă prin puncte galbene și roșii.

Țineți indicatorul mouse-ului pe punctul dorit pentru a vedea denumirea stației.

Apoi, faceți clic pentru a vedea observațiile și prognozele meteorologice.

Pentru a schimba harta: Pentru mărire, faceți clic pe butoanele verzi cu cruce neagră; pentru micșorare, pe butonul verde cu o liniuță; pentru hărți învecinate, pe săgețile verzi.


METAR-TAF: